Aviation Digital Data Service (ADDS)

Output produced by METARs form (0144 UTC 22 February 2019)
found at http://www.aviationweather.gov/metar/data/
 
Forecast for: LEMD (MADRID/BARAJAS , ES)
Text: TAF LEMD 212300Z 2200/2306 VRB04KT CAVOK TX19/2215Z TN00/2207Z
Forecast period: 0000 UTC 22 February 2019 to 0600 UTC 23 February 2019
Forecast type: FROM: standard forecast or significant change
Winds: variable direction winds at 5 MPH (4 knots; 2.1 m/s)
Visibility: 6 or more miles 10+ km)
Ceiling: unknown
Clouds: missing
Weather: no significant weather forecast for this period